sensor_id;sensor_type;location;lat;lon;timestamp;temperature;humidity
10046;DHT22;5063;50.878;4.742;2024-02-23T00:00:34;6.00;99.90
10046;DHT22;5063;50.878;4.742;2024-02-23T00:03:00;6.00;99.90
10046;DHT22;5063;50.878;4.742;2024-02-23T00:05:26;6.20;99.90
10046;DHT22;5063;50.878;4.742;2024-02-23T00:07:51;5.80;99.90
10046;DHT22;5063;50.878;4.742;2024-02-23T00:10:17;5.70;99.90
10046;DHT22;5063;50.878;4.742;2024-02-23T00:12:43;5.80;99.90
10046;DHT22;5063;50.878;4.742;2024-02-23T00:15:10;5.80;99.90
10046;DHT22;5063;50.878;4.742;2024-02-23T00:17:36;5.60;99.90
10046;DHT22;5063;50.878;4.742;2024-02-23T00:20:03;5.90;99.90
10046;DHT22;5063;50.878;4.742;2024-02-23T00:22:29;5.70;99.90
10046;DHT22;5063;50.878;4.742;2024-02-23T00:24:54;5.80;99.90
10046;DHT22;5063;50.878;4.742;2024-02-23T00:27:20;5.70;99.90
10046;DHT22;5063;50.878;4.742;2024-02-23T00:29:46;5.80;99.90
10046;DHT22;5063;50.878;4.742;2024-02-23T00:32:12;5.80;99.90
10046;DHT22;5063;50.878;4.742;2024-02-23T00:34:38;5.70;99.90
10046;DHT22;5063;50.878;4.742;2024-02-23T00:37:04;5.70;99.90
10046;DHT22;5063;50.878;4.742;2024-02-23T00:39:31;6.20;99.90
10046;DHT22;5063;50.878;4.742;2024-02-23T00:41:57;5.90;99.90
10046;DHT22;5063;50.878;4.742;2024-02-23T00:44:23;5.90;99.90
10046;DHT22;5063;50.878;4.742;2024-02-23T00:46:49;5.80;99.90
10046;DHT22;5063;50.878;4.742;2024-02-23T00:49:15;5.90;99.90
10046;DHT22;5063;50.878;4.742;2024-02-23T00:51:41;5.80;99.90
10046;DHT22;5063;50.878;4.742;2024-02-23T00:54:06;5.80;99.90
10046;DHT22;5063;50.878;4.742;2024-02-23T00:56:33;5.80;99.90
10046;DHT22;5063;50.878;4.742;2024-02-23T00:58:59;6.00;99.90
10046;DHT22;5063;50.878;4.742;2024-02-23T01:01:25;5.90;99.90
10046;DHT22;5063;50.878;4.742;2024-02-23T01:03:52;6.00;99.90
10046;DHT22;5063;50.878;4.742;2024-02-23T01:06:17;6.10;99.90
10046;DHT22;5063;50.878;4.742;2024-02-23T01:08:43;6.10;99.90
10046;DHT22;5063;50.878;4.742;2024-02-23T01:11:09;6.10;99.90
10046;DHT22;5063;50.878;4.742;2024-02-23T01:13:35;6.10;99.90
10046;DHT22;5063;50.878;4.742;2024-02-23T01:16:01;6.00;99.90
10046;DHT22;5063;50.878;4.742;2024-02-23T01:18:26;6.10;99.90
10046;DHT22;5063;50.878;4.742;2024-02-23T01:20:52;6.00;99.90
10046;DHT22;5063;50.878;4.742;2024-02-23T01:23:18;6.00;99.90
10046;DHT22;5063;50.878;4.742;2024-02-23T01:25:43;5.90;99.90
10046;DHT22;5063;50.878;4.742;2024-02-23T01:28:09;6.20;99.90
10046;DHT22;5063;50.878;4.742;2024-02-23T01:30:35;5.80;99.90
10046;DHT22;5063;50.878;4.742;2024-02-23T01:33:00;5.70;99.90
10046;DHT22;5063;50.878;4.742;2024-02-23T01:35:26;5.90;99.90
10046;DHT22;5063;50.878;4.742;2024-02-23T01:37:53;5.60;99.90
10046;DHT22;5063;50.878;4.742;2024-02-23T01:40:19;5.50;99.90
10046;DHT22;5063;50.878;4.742;2024-02-23T01:42:45;5.50;99.90
10046;DHT22;5063;50.878;4.742;2024-02-23T01:45:10;5.40;99.90
10046;DHT22;5063;50.878;4.742;2024-02-23T01:47:36;5.40;99.90
10046;DHT22;5063;50.878;4.742;2024-02-23T01:50:02;5.50;99.90
10046;DHT22;5063;50.878;4.742;2024-02-23T01:52:28;5.50;99.90
10046;DHT22;5063;50.878;4.742;2024-02-23T01:54:55;5.50;99.90
10046;DHT22;5063;50.878;4.742;2024-02-23T01:57:22;5.60;99.90
10046;DHT22;5063;50.878;4.742;2024-02-23T01:59:48;5.40;99.90
10046;DHT22;5063;50.878;4.742;2024-02-23T02:02:15;5.50;99.90
10046;DHT22;5063;50.878;4.742;2024-02-23T02:04:41;5.30;99.90
10046;DHT22;5063;50.878;4.742;2024-02-23T02:07:07;5.30;99.90
10046;DHT22;5063;50.878;4.742;2024-02-23T02:09:33;5.40;99.90
10046;DHT22;5063;50.878;4.742;2024-02-23T02:11:58;5.60;99.90
10046;DHT22;5063;50.878;4.742;2024-02-23T02:14:24;5.30;99.90
10046;DHT22;5063;50.878;4.742;2024-02-23T02:16:51;5.50;99.90
10046;DHT22;5063;50.878;4.742;2024-02-23T02:19:17;5.90;99.90
10046;DHT22;5063;50.878;4.742;2024-02-23T02:21:42;5.90;99.90
10046;DHT22;5063;50.878;4.742;2024-02-23T02:24:08;5.80;99.90
10046;DHT22;5063;50.878;4.742;2024-02-23T02:26:35;5.70;99.90
10046;DHT22;5063;50.878;4.742;2024-02-23T02:29:01;5.70;99.90
10046;DHT22;5063;50.878;4.742;2024-02-23T02:31:27;5.70;99.90
10046;DHT22;5063;50.878;4.742;2024-02-23T02:33:53;5.70;99.90
10046;DHT22;5063;50.878;4.742;2024-02-23T02:36:18;5.80;99.90
10046;DHT22;5063;50.878;4.742;2024-02-23T02:38:44;5.80;99.90
10046;DHT22;5063;50.878;4.742;2024-02-23T02:41:10;5.90;99.90
10046;DHT22;5063;50.878;4.742;2024-02-23T02:43:35;6.10;99.90
10046;DHT22;5063;50.878;4.742;2024-02-23T02:46:01;6.00;99.90
10046;DHT22;5063;50.878;4.742;2024-02-23T02:48:27;6.40;99.90
10046;DHT22;5063;50.878;4.742;2024-02-23T02:50:53;6.10;99.90
10046;DHT22;5063;50.878;4.742;2024-02-23T02:53:19;6.20;99.90
10046;DHT22;5063;50.878;4.742;2024-02-23T02:55:45;6.20;99.90
10046;DHT22;5063;50.878;4.742;2024-02-23T02:58:14;6.30;99.90
10046;DHT22;5063;50.878;4.742;2024-02-23T03:00:40;6.20;99.90
10046;DHT22;5063;50.878;4.742;2024-02-23T03:03:06;6.30;99.90
10046;DHT22;5063;50.878;4.742;2024-02-23T03:05:31;6.30;99.90
10046;DHT22;5063;50.878;4.742;2024-02-23T03:07:57;6.30;99.90
10046;DHT22;5063;50.878;4.742;2024-02-23T03:10:23;6.50;99.90
10046;DHT22;5063;50.878;4.742;2024-02-23T03:12:49;6.30;99.90
10046;DHT22;5063;50.878;4.742;2024-02-23T03:15:15;6.40;99.90
10046;DHT22;5063;50.878;4.742;2024-02-23T03:17:40;6.30;99.90
10046;DHT22;5063;50.878;4.742;2024-02-23T03:20:06;6.30;99.90
10046;DHT22;5063;50.878;4.742;2024-02-23T03:22:35;6.30;99.90
10046;DHT22;5063;50.878;4.742;2024-02-23T03:25:01;6.30;99.90
10046;DHT22;5063;50.878;4.742;2024-02-23T03:27:34;6.30;99.90
10046;DHT22;5063;50.878;4.742;2024-02-23T03:30:00;6.40;99.90
10046;DHT22;5063;50.878;4.742;2024-02-23T03:32:26;6.40;99.90
10046;DHT22;5063;50.878;4.742;2024-02-23T03:34:52;6.30;99.90
10046;DHT22;5063;50.878;4.742;2024-02-23T03:37:17;6.30;99.90
10046;DHT22;5063;50.878;4.742;2024-02-23T03:39:43;6.50;99.90
10046;DHT22;5063;50.878;4.742;2024-02-23T03:42:08;6.50;99.90
10046;DHT22;5063;50.878;4.742;2024-02-23T03:44:34;6.30;99.90
10046;DHT22;5063;50.878;4.742;2024-02-23T03:47:00;6.30;99.90
10046;DHT22;5063;50.878;4.742;2024-02-23T03:49:26;6.30;99.90
10046;DHT22;5063;50.878;4.742;2024-02-23T03:51:51;6.40;99.90
10046;DHT22;5063;50.878;4.742;2024-02-23T03:54:17;6.50;99.90
10046;DHT22;5063;50.878;4.742;2024-02-23T03:56:43;6.40;99.90
10046;DHT22;5063;50.878;4.742;2024-02-23T03:59:09;6.40;99.90
10046;DHT22;5063;50.878;4.742;2024-02-23T04:01:37;6.40;99.90
10046;DHT22;5063;50.878;4.742;2024-02-23T04:04:03;6.30;99.90
10046;DHT22;5063;50.878;4.742;2024-02-23T04:06:29;6.20;99.90
10046;DHT22;5063;50.878;4.742;2024-02-23T04:08:54;6.20;99.90
10046;DHT22;5063;50.878;4.742;2024-02-23T04:11:20;6.10;99.90
10046;DHT22;5063;50.878;4.742;2024-02-23T04:13:46;6.20;99.90
10046;DHT22;5063;50.878;4.742;2024-02-23T04:16:12;6.50;99.90
10046;DHT22;5063;50.878;4.742;2024-02-23T04:18:37;6.30;99.90
10046;DHT22;5063;50.878;4.742;2024-02-23T04:21:03;6.30;99.90
10046;DHT22;5063;50.878;4.742;2024-02-23T04:23:30;6.40;99.90
10046;DHT22;5063;50.878;4.742;2024-02-23T04:25:55;6.40;99.90
10046;DHT22;5063;50.878;4.742;2024-02-23T04:28:21;6.30;99.90
10046;DHT22;5063;50.878;4.742;2024-02-23T04:30:47;6.40;99.90
10046;DHT22;5063;50.878;4.742;2024-02-23T04:33:13;6.40;99.90
10046;DHT22;5063;50.878;4.742;2024-02-23T04:35:38;6.30;99.90
10046;DHT22;5063;50.878;4.742;2024-02-23T04:38:04;6.30;99.90
10046;DHT22;5063;50.878;4.742;2024-02-23T04:40:30;6.20;99.90
10046;DHT22;5063;50.878;4.742;2024-02-23T04:42:55;6.10;99.90
10046;DHT22;5063;50.878;4.742;2024-02-23T04:45:21;5.90;99.90
10046;DHT22;5063;50.878;4.742;2024-02-23T04:47:47;6.50;99.90
10046;DHT22;5063;50.878;4.742;2024-02-23T04:50:14;6.30;99.90
10046;DHT22;5063;50.878;4.742;2024-02-23T04:52:40;6.40;99.90
10046;DHT22;5063;50.878;4.742;2024-02-23T04:55:05;6.40;99.90
10046;DHT22;5063;50.878;4.742;2024-02-23T04:57:32;6.40;99.90
10046;DHT22;5063;50.878;4.742;2024-02-23T04:59:58;6.40;99.90
10046;DHT22;5063;50.878;4.742;2024-02-23T05:02:23;6.40;99.90
10046;DHT22;5063;50.878;4.742;2024-02-23T05:04:49;6.50;99.90
10046;DHT22;5063;50.878;4.742;2024-02-23T05:07:15;6.50;99.90
10046;DHT22;5063;50.878;4.742;2024-02-23T05:09:40;6.60;99.90
10046;DHT22;5063;50.878;4.742;2024-02-23T05:12:08;6.60;99.90
10046;DHT22;5063;50.878;4.742;2024-02-23T05:14:34;6.50;99.90
10046;DHT22;5063;50.878;4.742;2024-02-23T05:16:59;6.50;99.90
10046;DHT22;5063;50.878;4.742;2024-02-23T05:19:25;6.40;99.90
10046;DHT22;5063;50.878;4.742;2024-02-23T05:21:51;6.50;99.90
10046;DHT22;5063;50.878;4.742;2024-02-23T05:24:16;6.40;99.90
10046;DHT22;5063;50.878;4.742;2024-02-23T05:26:42;6.60;99.90
10046;DHT22;5063;50.878;4.742;2024-02-23T05:29:10;6.40;99.90
10046;DHT22;5063;50.878;4.742;2024-02-23T05:31:54;6.70;99.90
10046;DHT22;5063;50.878;4.742;2024-02-23T05:34:20;6.50;99.90
10046;DHT22;5063;50.878;4.742;2024-02-23T05:36:47;6.50;99.90
10046;DHT22;5063;50.878;4.742;2024-02-23T05:39:13;6.60;99.90
10046;DHT22;5063;50.878;4.742;2024-02-23T05:41:44;6.50;99.90
10046;DHT22;5063;50.878;4.742;2024-02-23T05:44:10;6.50;99.90
10046;DHT22;5063;50.878;4.742;2024-02-23T05:46:36;6.50;99.90
10046;DHT22;5063;50.878;4.742;2024-02-23T05:49:05;6.50;99.90
10046;DHT22;5063;50.878;4.742;2024-02-23T05:51:31;6.60;99.90
10046;DHT22;5063;50.878;4.742;2024-02-23T05:53:58;6.50;99.90
10046;DHT22;5063;50.878;4.742;2024-02-23T05:56:24;6.50;99.90
10046;DHT22;5063;50.878;4.742;2024-02-23T05:58:50;6.60;99.90
10046;DHT22;5063;50.878;4.742;2024-02-23T06:01:17;6.50;99.90
10046;DHT22;5063;50.878;4.742;2024-02-23T06:03:43;6.40;99.90
10046;DHT22;5063;50.878;4.742;2024-02-23T06:06:10;6.50;99.90
10046;DHT22;5063;50.878;4.742;2024-02-23T06:08:36;6.50;99.90
10046;DHT22;5063;50.878;4.742;2024-02-23T06:11:03;6.50;99.90
10046;DHT22;5063;50.878;4.742;2024-02-23T06:13:32;6.70;99.90
10046;DHT22;5063;50.878;4.742;2024-02-23T06:15:59;6.50;99.90
10046;DHT22;5063;50.878;4.742;2024-02-23T06:18:24;6.60;99.90
10046;DHT22;5063;50.878;4.742;2024-02-23T06:20:50;6.50;99.90
10046;DHT22;5063;50.878;4.742;2024-02-23T06:23:17;6.50;99.90
10046;DHT22;5063;50.878;4.742;2024-02-23T06:25:43;6.40;99.90
10046;DHT22;5063;50.878;4.742;2024-02-23T06:28:12;6.60;99.90
10046;DHT22;5063;50.878;4.742;2024-02-23T06:30:37;6.60;99.90
10046;DHT22;5063;50.878;4.742;2024-02-23T06:33:03;6.70;99.90
10046;DHT22;5063;50.878;4.742;2024-02-23T06:35:30;6.80;99.90
10046;DHT22;5063;50.878;4.742;2024-02-23T06:37:56;6.60;99.90
10046;DHT22;5063;50.878;4.742;2024-02-23T06:40:22;6.60;99.90
10046;DHT22;5063;50.878;4.742;2024-02-23T06:42:48;6.60;99.90
10046;DHT22;5063;50.878;4.742;2024-02-23T06:45:13;6.60;99.90
10046;DHT22;5063;50.878;4.742;2024-02-23T06:47:39;6.60;99.90
10046;DHT22;5063;50.878;4.742;2024-02-23T06:50:06;6.60;99.90
10046;DHT22;5063;50.878;4.742;2024-02-23T06:52:34;6.70;99.90
10046;DHT22;5063;50.878;4.742;2024-02-23T06:55:00;6.90;99.90
10046;DHT22;5063;50.878;4.742;2024-02-23T06:57:25;6.60;99.90
10046;DHT22;5063;50.878;4.742;2024-02-23T06:59:52;6.70;99.90
10046;DHT22;5063;50.878;4.742;2024-02-23T07:02:17;6.90;99.90
10046;DHT22;5063;50.878;4.742;2024-02-23T07:04:43;6.80;99.90
10046;DHT22;5063;50.878;4.742;2024-02-23T07:07:09;6.80;99.90
10046;DHT22;5063;50.878;4.742;2024-02-23T07:09:37;6.80;99.90
10046;DHT22;5063;50.878;4.742;2024-02-23T07:12:03;7.00;99.90
10046;DHT22;5063;50.878;4.742;2024-02-23T07:14:29;6.90;99.90
10046;DHT22;5063;50.878;4.742;2024-02-23T07:16:54;6.80;99.90
10046;DHT22;5063;50.878;4.742;2024-02-23T07:19:20;6.40;99.90
10046;DHT22;5063;50.878;4.742;2024-02-23T07:21:46;7.00;99.90
10046;DHT22;5063;50.878;4.742;2024-02-23T07:24:12;6.90;99.90
10046;DHT22;5063;50.878;4.742;2024-02-23T07:26:38;7.00;99.90
10046;DHT22;5063;50.878;4.742;2024-02-23T07:29:04;7.00;99.90
10046;DHT22;5063;50.878;4.742;2024-02-23T07:31:30;7.20;99.90
10046;DHT22;5063;50.878;4.742;2024-02-23T07:33:55;7.20;99.90
10046;DHT22;5063;50.878;4.742;2024-02-23T07:36:21;7.20;99.90
10046;DHT22;5063;50.878;4.742;2024-02-23T07:38:47;7.20;99.90
10046;DHT22;5063;50.878;4.742;2024-02-23T07:41:14;7.20;99.90
10046;DHT22;5063;50.878;4.742;2024-02-23T07:43:40;7.20;99.90
10046;DHT22;5063;50.878;4.742;2024-02-23T07:46:06;7.20;99.90
10046;DHT22;5063;50.878;4.742;2024-02-23T07:48:35;7.20;99.90
10046;DHT22;5063;50.878;4.742;2024-02-23T07:51:02;7.30;99.90
10046;DHT22;5063;50.878;4.742;2024-02-23T07:53:28;7.30;99.90
10046;DHT22;5063;50.878;4.742;2024-02-23T07:55:54;7.60;99.90
10046;DHT22;5063;50.878;4.742;2024-02-23T07:58:20;7.70;99.90
10046;DHT22;5063;50.878;4.742;2024-02-23T08:00:46;7.60;99.90
10046;DHT22;5063;50.878;4.742;2024-02-23T08:03:12;7.70;99.90
10046;DHT22;5063;50.878;4.742;2024-02-23T08:05:38;7.70;99.90
10046;DHT22;5063;50.878;4.742;2024-02-23T08:08:04;7.80;99.90
10046;DHT22;5063;50.878;4.742;2024-02-23T08:10:30;7.80;99.90
10046;DHT22;5063;50.878;4.742;2024-02-23T08:12:55;7.80;99.90
10046;DHT22;5063;50.878;4.742;2024-02-23T08:15:21;7.90;99.90
10046;DHT22;5063;50.878;4.742;2024-02-23T08:17:47;7.90;99.90
10046;DHT22;5063;50.878;4.742;2024-02-23T08:20:12;8.10;99.90
10046;DHT22;5063;50.878;4.742;2024-02-23T08:22:38;8.00;99.90
10046;DHT22;5063;50.878;4.742;2024-02-23T08:25:04;7.70;99.90
10046;DHT22;5063;50.878;4.742;2024-02-23T08:27:30;7.60;99.90
10046;DHT22;5063;50.878;4.742;2024-02-23T08:29:55;7.70;99.90
10046;DHT22;5063;50.878;4.742;2024-02-23T08:32:21;7.90;99.90
10046;DHT22;5063;50.878;4.742;2024-02-23T08:34:47;7.60;99.90
10046;DHT22;5063;50.878;4.742;2024-02-23T08:37:13;7.40;99.90
10046;DHT22;5063;50.878;4.742;2024-02-23T08:39:39;7.30;99.90
10046;DHT22;5063;50.878;4.742;2024-02-23T08:42:04;7.20;99.90
10046;DHT22;5063;50.878;4.742;2024-02-23T08:44:30;7.10;99.90
10046;DHT22;5063;50.878;4.742;2024-02-23T08:46:56;7.10;99.90
10046;DHT22;5063;50.878;4.742;2024-02-23T08:49:21;7.20;99.90
10046;DHT22;5063;50.878;4.742;2024-02-23T08:51:47;7.40;99.90
10046;DHT22;5063;50.878;4.742;2024-02-23T08:54:13;7.10;99.90
10046;DHT22;5063;50.878;4.742;2024-02-23T08:56:39;7.30;99.90
10046;DHT22;5063;50.878;4.742;2024-02-23T08:59:05;7.40;99.90
10046;DHT22;5063;50.878;4.742;2024-02-23T09:01:31;7.40;99.90
10046;DHT22;5063;50.878;4.742;2024-02-23T09:03:56;7.50;99.90
10046;DHT22;5063;50.878;4.742;2024-02-23T09:06:22;8.10;99.90
10046;DHT22;5063;50.878;4.742;2024-02-23T09:08:48;8.40;99.90
10046;DHT22;5063;50.878;4.742;2024-02-23T09:11:13;8.70;99.90
10046;DHT22;5063;50.878;4.742;2024-02-23T09:13:41;8.70;99.90
10046;DHT22;5063;50.878;4.742;2024-02-23T09:16:07;8.70;99.90
10046;DHT22;5063;50.878;4.742;2024-02-23T09:18:34;8.40;99.90
10046;DHT22;5063;50.878;4.742;2024-02-23T09:21:00;8.40;99.90
10046;DHT22;5063;50.878;4.742;2024-02-23T09:23:26;8.50;99.90
10046;DHT22;5063;50.878;4.742;2024-02-23T09:25:52;8.40;99.90
10046;DHT22;5063;50.878;4.742;2024-02-23T09:28:18;8.50;99.90
10046;DHT22;5063;50.878;4.742;2024-02-23T09:30:43;8.60;99.90
10046;DHT22;5063;50.878;4.742;2024-02-23T09:33:09;8.40;99.90
10046;DHT22;5063;50.878;4.742;2024-02-23T09:35:35;8.30;99.90
10046;DHT22;5063;50.878;4.742;2024-02-23T09:38:01;8.30;99.90
10046;DHT22;5063;50.878;4.742;2024-02-23T09:40:26;8.30;99.90
10046;DHT22;5063;50.878;4.742;2024-02-23T09:42:57;8.40;99.90
10046;DHT22;5063;50.878;4.742;2024-02-23T09:45:27;8.40;99.90
10046;DHT22;5063;50.878;4.742;2024-02-23T09:47:56;8.50;99.90
10046;DHT22;5063;50.878;4.742;2024-02-23T09:50:25;8.20;99.90
10046;DHT22;5063;50.878;4.742;2024-02-23T09:52:53;8.30;99.90
10046;DHT22;5063;50.878;4.742;2024-02-23T09:55:22;8.60;99.90
10046;DHT22;5063;50.878;4.742;2024-02-23T09:57:48;9.10;99.90
10046;DHT22;5063;50.878;4.742;2024-02-23T10:00:17;8.60;99.90
10046;DHT22;5063;50.878;4.742;2024-02-23T10:02:43;8.70;99.90
10046;DHT22;5063;50.878;4.742;2024-02-23T10:05:11;8.50;99.90
10046;DHT22;5063;50.878;4.742;2024-02-23T10:07:38;8.60;99.90
10046;DHT22;5063;50.878;4.742;2024-02-23T10:10:07;8.90;99.90
10046;DHT22;5063;50.878;4.742;2024-02-23T10:12:34;8.70;99.90
10046;DHT22;5063;50.878;4.742;2024-02-23T10:15:01;9.00;99.90
10046;DHT22;5063;50.878;4.742;2024-02-23T10:17:30;9.20;99.90
10046;DHT22;5063;50.878;4.742;2024-02-23T10:19:56;9.40;99.90
10046;DHT22;5063;50.878;4.742;2024-02-23T10:22:23;9.20;99.90
10046;DHT22;5063;50.878;4.742;2024-02-23T10:24:51;9.40;99.90
10046;DHT22;5063;50.878;4.742;2024-02-23T10:27:17;9.40;99.90
10046;DHT22;5063;50.878;4.742;2024-02-23T10:29:43;9.60;99.90
10046;DHT22;5063;50.878;4.742;2024-02-23T10:32:14;9.40;99.90
10046;DHT22;5063;50.878;4.742;2024-02-23T10:34:42;9.30;99.90
10046;DHT22;5063;50.878;4.742;2024-02-23T10:37:08;9.20;99.90
10046;DHT22;5063;50.878;4.742;2024-02-23T10:39:37;9.20;99.90
10046;DHT22;5063;50.878;4.742;2024-02-23T10:42:09;9.60;99.90
10046;DHT22;5063;50.878;4.742;2024-02-23T10:44:39;9.50;99.90
10046;DHT22;5063;50.878;4.742;2024-02-23T10:47:07;9.50;99.90
10046;DHT22;5063;50.878;4.742;2024-02-23T10:49:33;9.80;99.90
10046;DHT22;5063;50.878;4.742;2024-02-23T10:52:00;10.10;99.90
10046;DHT22;5063;50.878;4.742;2024-02-23T10:54:27;9.70;99.90
10046;DHT22;5063;50.878;4.742;2024-02-23T10:56:53;9.90;99.90
10046;DHT22;5063;50.878;4.742;2024-02-23T10:59:21;9.80;99.90
10046;DHT22;5063;50.878;4.742;2024-02-23T11:01:49;9.80;99.90
10046;DHT22;5063;50.878;4.742;2024-02-23T11:04:16;9.70;99.90
10046;DHT22;5063;50.878;4.742;2024-02-23T11:06:42;9.60;99.90
10046;DHT22;5063;50.878;4.742;2024-02-23T11:09:12;9.70;99.90
10046;DHT22;5063;50.878;4.742;2024-02-23T11:11:38;9.70;99.90
10046;DHT22;5063;50.878;4.742;2024-02-23T11:14:08;10.00;99.90
10046;DHT22;5063;50.878;4.742;2024-02-23T11:16:38;10.40;99.90
10046;DHT22;5063;50.878;4.742;2024-02-23T11:19:07;10.40;99.90
10046;DHT22;5063;50.878;4.742;2024-02-23T11:21:37;10.30;99.90
10046;DHT22;5063;50.878;4.742;2024-02-23T11:24:04;10.40;99.90
10046;DHT22;5063;50.878;4.742;2024-02-23T11:26:30;10.40;99.90
10046;DHT22;5063;50.878;4.742;2024-02-23T11:28:57;10.40;99.90
10046;DHT22;5063;50.878;4.742;2024-02-23T11:31:28;10.20;99.90
10046;DHT22;5063;50.878;4.742;2024-02-23T11:33:55;10.20;99.90
10046;DHT22;5063;50.878;4.742;2024-02-23T11:36:32;10.30;99.90
10046;DHT22;5063;50.878;4.742;2024-02-23T11:38:59;10.30;99.90
10046;DHT22;5063;50.878;4.742;2024-02-23T11:41:28;10.10;99.90
10046;DHT22;5063;50.878;4.742;2024-02-23T11:43:55;9.80;99.90
10046;DHT22;5063;50.878;4.742;2024-02-23T11:46:22;9.70;99.90
10046;DHT22;5063;50.878;4.742;2024-02-23T11:48:48;9.80;99.90
10046;DHT22;5063;50.878;4.742;2024-02-23T11:51:20;9.60;99.90
10046;DHT22;5063;50.878;4.742;2024-02-23T11:53:47;9.60;99.90
10046;DHT22;5063;50.878;4.742;2024-02-23T11:56:13;9.50;99.90
10046;DHT22;5063;50.878;4.742;2024-02-23T11:58:42;9.60;99.90
10046;DHT22;5063;50.878;4.742;2024-02-23T12:01:08;9.60;99.90
10046;DHT22;5063;50.878;4.742;2024-02-23T12:03:34;9.60;99.90
10046;DHT22;5063;50.878;4.742;2024-02-23T12:06:01;9.70;99.90
10046;DHT22;5063;50.878;4.742;2024-02-23T12:08:29;9.90;99.90
10046;DHT22;5063;50.878;4.742;2024-02-23T12:10:55;9.80;99.90
10046;DHT22;5063;50.878;4.742;2024-02-23T12:13:21;9.80;99.90
10046;DHT22;5063;50.878;4.742;2024-02-23T12:15:48;9.80;99.90
10046;DHT22;5063;50.878;4.742;2024-02-23T12:18:14;9.80;99.90
10046;DHT22;5063;50.878;4.742;2024-02-23T12:20:42;9.90;99.90
10046;DHT22;5063;50.878;4.742;2024-02-23T12:23:08;9.70;99.90
10046;DHT22;5063;50.878;4.742;2024-02-23T12:25:35;9.70;99.90
10046;DHT22;5063;50.878;4.742;2024-02-23T12:28:01;9.90;99.90
10046;DHT22;5063;50.878;4.742;2024-02-23T12:30:27;10.00;99.90
10046;DHT22;5063;50.878;4.742;2024-02-23T12:33:07;10.10;99.90
10046;DHT22;5063;50.878;4.742;2024-02-23T12:35:34;10.20;99.90
10046;DHT22;5063;50.878;4.742;2024-02-23T12:38:01;10.10;99.90
10046;DHT22;5063;50.878;4.742;2024-02-23T12:40:27;10.00;99.90
10046;DHT22;5063;50.878;4.742;2024-02-23T12:42:53;10.10;99.90
10046;DHT22;5063;50.878;4.742;2024-02-23T12:45:18;10.20;99.90
10046;DHT22;5063;50.878;4.742;2024-02-23T12:47:44;10.20;99.90
10046;DHT22;5063;50.878;4.742;2024-02-23T12:50:10;10.10;99.90
10046;DHT22;5063;50.878;4.742;2024-02-23T12:52:36;10.00;99.90
10046;DHT22;5063;50.878;4.742;2024-02-23T12:55:02;10.10;99.90
10046;DHT22;5063;50.878;4.742;2024-02-23T12:57:28;10.00;99.90
10046;DHT22;5063;50.878;4.742;2024-02-23T12:59:54;9.90;99.90
10046;DHT22;5063;50.878;4.742;2024-02-23T13:02:20;10.00;99.90
10046;DHT22;5063;50.878;4.742;2024-02-23T13:04:46;10.20;99.90
10046;DHT22;5063;50.878;4.742;2024-02-23T13:07:17;10.20;99.90
10046;DHT22;5063;50.878;4.742;2024-02-23T13:09:44;10.10;99.90
10046;DHT22;5063;50.878;4.742;2024-02-23T13:12:09;10.00;99.90
10046;DHT22;5063;50.878;4.742;2024-02-23T13:14:35;9.80;99.90
10046;DHT22;5063;50.878;4.742;2024-02-23T13:17:01;10.00;99.90
10046;DHT22;5063;50.878;4.742;2024-02-23T13:19:26;9.90;99.90
10046;DHT22;5063;50.878;4.742;2024-02-23T13:21:52;9.90;99.90
10046;DHT22;5063;50.878;4.742;2024-02-23T13:24:18;10.00;99.90
10046;DHT22;5063;50.878;4.742;2024-02-23T13:26:44;10.00;99.90
10046;DHT22;5063;50.878;4.742;2024-02-23T13:29:10;10.10;99.90
10046;DHT22;5063;50.878;4.742;2024-02-23T13:31:36;10.20;99.90
10046;DHT22;5063;50.878;4.742;2024-02-23T13:34:03;10.30;99.90
10046;DHT22;5063;50.878;4.742;2024-02-23T13:36:29;10.70;99.90
10046;DHT22;5063;50.878;4.742;2024-02-23T13:38:55;10.70;99.90
10046;DHT22;5063;50.878;4.742;2024-02-23T13:41:21;10.80;99.90
10046;DHT22;5063;50.878;4.742;2024-02-23T13:43:46;10.60;99.90
10046;DHT22;5063;50.878;4.742;2024-02-23T13:46:12;10.70;99.90
10046;DHT22;5063;50.878;4.742;2024-02-23T13:48:38;10.80;99.90
10046;DHT22;5063;50.878;4.742;2024-02-23T13:51:04;11.10;99.90
10046;DHT22;5063;50.878;4.742;2024-02-23T13:53:31;11.20;99.90
10046;DHT22;5063;50.878;4.742;2024-02-23T13:55:57;10.90;99.90
10046;DHT22;5063;50.878;4.742;2024-02-23T13:58:22;10.40;99.90
10046;DHT22;5063;50.878;4.742;2024-02-23T14:00:48;10.50;99.90
10046;DHT22;5063;50.878;4.742;2024-02-23T14:03:16;10.40;99.90
10046;DHT22;5063;50.878;4.742;2024-02-23T14:05:43;10.40;99.90
10046;DHT22;5063;50.878;4.742;2024-02-23T14:08:10;10.30;99.90
10046;DHT22;5063;50.878;4.742;2024-02-23T14:10:36;10.30;99.90
10046;DHT22;5063;50.878;4.742;2024-02-23T14:13:02;10.30;99.90
10046;DHT22;5063;50.878;4.742;2024-02-23T14:15:27;10.20;99.90
10046;DHT22;5063;50.878;4.742;2024-02-23T14:17:53;10.00;99.90
10046;DHT22;5063;50.878;4.742;2024-02-23T14:20:19;10.20;99.90
10046;DHT22;5063;50.878;4.742;2024-02-23T14:22:44;10.30;99.90
10046;DHT22;5063;50.878;4.742;2024-02-23T14:25:10;10.40;99.90
10046;DHT22;5063;50.878;4.742;2024-02-23T14:27:36;10.50;99.90
10046;DHT22;5063;50.878;4.742;2024-02-23T14:30:02;10.40;99.90
10046;DHT22;5063;50.878;4.742;2024-02-23T14:32:28;10.20;99.90
10046;DHT22;5063;50.878;4.742;2024-02-23T14:34:54;10.20;99.90
10046;DHT22;5063;50.878;4.742;2024-02-23T14:37:20;10.20;99.90
10046;DHT22;5063;50.878;4.742;2024-02-23T14:39:46;10.00;99.90
10046;DHT22;5063;50.878;4.742;2024-02-23T14:42:11;9.90;99.90
10046;DHT22;5063;50.878;4.742;2024-02-23T14:44:37;10.10;99.90
10046;DHT22;5063;50.878;4.742;2024-02-23T14:47:03;10.20;99.90
10046;DHT22;5063;50.878;4.742;2024-02-23T14:49:31;10.30;99.90
10046;DHT22;5063;50.878;4.742;2024-02-23T14:51:57;10.30;99.90
10046;DHT22;5063;50.878;4.742;2024-02-23T14:54:23;10.20;99.90
10046;DHT22;5063;50.878;4.742;2024-02-23T14:56:48;10.20;99.90
10046;DHT22;5063;50.878;4.742;2024-02-23T14:59:14;10.20;99.90
10046;DHT22;5063;50.878;4.742;2024-02-23T15:01:40;10.20;99.90
10046;DHT22;5063;50.878;4.742;2024-02-23T15:04:08;10.20;99.90
10046;DHT22;5063;50.878;4.742;2024-02-23T15:06:35;10.30;99.90
10046;DHT22;5063;50.878;4.742;2024-02-23T15:09:03;10.40;99.90
10046;DHT22;5063;50.878;4.742;2024-02-23T15:11:29;10.50;99.90
10046;DHT22;5063;50.878;4.742;2024-02-23T15:13:55;10.40;99.90
10046;DHT22;5063;50.878;4.742;2024-02-23T15:16:27;10.20;99.90
10046;DHT22;5063;50.878;4.742;2024-02-23T15:18:53;10.10;99.90
10046;DHT22;5063;50.878;4.742;2024-02-23T15:21:19;10.10;99.90
10046;DHT22;5063;50.878;4.742;2024-02-23T15:23:46;10.10;99.90
10046;DHT22;5063;50.878;4.742;2024-02-23T15:26:11;10.00;99.90
10046;DHT22;5063;50.878;4.742;2024-02-23T15:28:38;9.90;99.90
10046;DHT22;5063;50.878;4.742;2024-02-23T15:31:04;10.10;99.90
10046;DHT22;5063;50.878;4.742;2024-02-23T15:33:30;10.40;99.90
10046;DHT22;5063;50.878;4.742;2024-02-23T15:35:55;10.50;99.90
10046;DHT22;5063;50.878;4.742;2024-02-23T15:38:21;10.70;99.90
10046;DHT22;5063;50.878;4.742;2024-02-23T15:40:47;10.70;99.90
10046;DHT22;5063;50.878;4.742;2024-02-23T15:43:14;10.50;99.90
10046;DHT22;5063;50.878;4.742;2024-02-23T15:45:40;10.50;99.90
10046;DHT22;5063;50.878;4.742;2024-02-23T15:48:06;10.30;99.90
10046;DHT22;5063;50.878;4.742;2024-02-23T15:50:32;10.20;99.90